sensor_id;sensor_type;location;lat;lon;timestamp;temperature;humidity
4904;DHT22;2467;48.142;11.616;2023-07-20T00:00:18;22.40;74.70
4904;DHT22;2467;48.142;11.616;2023-07-20T00:01:30;22.40;74.90
4904;DHT22;2467;48.142;11.616;2023-07-20T00:02:41;22.40;75.10
4904;DHT22;2467;48.142;11.616;2023-07-20T00:03:34;22.30;75.40
4904;DHT22;2467;48.142;11.616;2023-07-20T00:04:27;22.40;75.80
4904;DHT22;2467;48.142;11.616;2023-07-20T00:05:19;22.30;76.40
4904;DHT22;2467;48.142;11.616;2023-07-20T00:06:13;22.30;75.60
4904;DHT22;2467;48.142;11.616;2023-07-20T00:07:06;22.30;75.50
4904;DHT22;2467;48.142;11.616;2023-07-20T00:07:58;22.30;75.30
4904;DHT22;2467;48.142;11.616;2023-07-20T00:08:51;22.30;75.50
4904;DHT22;2467;48.142;11.616;2023-07-20T00:09:43;22.30;75.50
4904;DHT22;2467;48.142;11.616;2023-07-20T00:10:37;22.20;75.90
4904;DHT22;2467;48.142;11.616;2023-07-20T00:11:29;22.20;76.50
4904;DHT22;2467;48.142;11.616;2023-07-20T00:12:21;22.20;76.30
4904;DHT22;2467;48.142;11.616;2023-07-20T00:13:15;22.20;76.10
4904;DHT22;2467;48.142;11.616;2023-07-20T00:14:07;22.20;76.00
4904;DHT22;2467;48.142;11.616;2023-07-20T00:15:01;22.20;76.00
4904;DHT22;2467;48.142;11.616;2023-07-20T00:15:53;22.10;76.00
4904;DHT22;2467;48.142;11.616;2023-07-20T00:16:47;22.10;76.30
4904;DHT22;2467;48.142;11.616;2023-07-20T00:17:42;22.20;76.50
4904;DHT22;2467;48.142;11.616;2023-07-20T00:18:36;22.10;76.30
4904;DHT22;2467;48.142;11.616;2023-07-20T00:19:29;22.10;76.30
4904;DHT22;2467;48.142;11.616;2023-07-20T00:20:23;22.10;76.10
4904;DHT22;2467;48.142;11.616;2023-07-20T00:21:16;22.10;76.10
4904;DHT22;2467;48.142;11.616;2023-07-20T00:22:08;22.10;76.00
4904;DHT22;2467;48.142;11.616;2023-07-20T00:23:03;22.10;76.20
4904;DHT22;2467;48.142;11.616;2023-07-20T00:23:55;22.10;76.50
4904;DHT22;2467;48.142;11.616;2023-07-20T00:24:48;22.10;76.80
4904;DHT22;2467;48.142;11.616;2023-07-20T00:25:41;22.00;76.80
4904;DHT22;2467;48.142;11.616;2023-07-20T00:26:34;22.00;76.90
4904;DHT22;2467;48.142;11.616;2023-07-20T00:27:27;22.00;77.00
4904;DHT22;2467;48.142;11.616;2023-07-20T00:28:19;22.00;77.40
4904;DHT22;2467;48.142;11.616;2023-07-20T00:29:13;22.00;77.60
4904;DHT22;2467;48.142;11.616;2023-07-20T00:30:06;22.00;77.60
4904;DHT22;2467;48.142;11.616;2023-07-20T00:31:00;22.00;77.60
4904;DHT22;2467;48.142;11.616;2023-07-20T00:31:52;22.00;77.50
4904;DHT22;2467;48.142;11.616;2023-07-20T00:32:46;22.00;77.70
4904;DHT22;2467;48.142;11.616;2023-07-20T00:33:39;22.00;77.70
4904;DHT22;2467;48.142;11.616;2023-07-20T00:34:32;22.00;77.60
4904;DHT22;2467;48.142;11.616;2023-07-20T00:35:25;22.00;77.60
4904;DHT22;2467;48.142;11.616;2023-07-20T00:36:17;22.00;77.70
4904;DHT22;2467;48.142;11.616;2023-07-20T00:37:11;22.00;77.80
4904;DHT22;2467;48.142;11.616;2023-07-20T00:38:04;22.00;77.80
4904;DHT22;2467;48.142;11.616;2023-07-20T00:38:57;22.00;77.90
4904;DHT22;2467;48.142;11.616;2023-07-20T00:39:50;22.00;78.00
4904;DHT22;2467;48.142;11.616;2023-07-20T00:40:43;21.90;78.10
4904;DHT22;2467;48.142;11.616;2023-07-20T00:41:36;22.00;78.30
4904;DHT22;2467;48.142;11.616;2023-07-20T00:42:28;22.00;78.20
4904;DHT22;2467;48.142;11.616;2023-07-20T00:43:21;21.90;78.40
4904;DHT22;2467;48.142;11.616;2023-07-20T00:44:13;21.90;78.70
4904;DHT22;2467;48.142;11.616;2023-07-20T00:45:07;21.90;79.00
4904;DHT22;2467;48.142;11.616;2023-07-20T00:45:59;21.90;78.80
4904;DHT22;2467;48.142;11.616;2023-07-20T00:46:52;21.90;78.70
4904;DHT22;2467;48.142;11.616;2023-07-20T00:47:46;21.90;78.90
4904;DHT22;2467;48.142;11.616;2023-07-20T00:48:39;22.00;79.20
4904;DHT22;2467;48.142;11.616;2023-07-20T00:49:33;22.00;79.20
4904;DHT22;2467;48.142;11.616;2023-07-20T00:50:26;22.00;78.90
4904;DHT22;2467;48.142;11.616;2023-07-20T00:51:20;22.00;79.10
4904;DHT22;2467;48.142;11.616;2023-07-20T00:52:14;22.00;79.00
4904;DHT22;2467;48.142;11.616;2023-07-20T00:53:07;22.00;79.10
4904;DHT22;2467;48.142;11.616;2023-07-20T00:53:59;22.00;79.20
4904;DHT22;2467;48.142;11.616;2023-07-20T00:54:52;22.00;79.30
4904;DHT22;2467;48.142;11.616;2023-07-20T00:55:48;22.00;79.00
4904;DHT22;2467;48.142;11.616;2023-07-20T00:56:40;21.90;79.10
4904;DHT22;2467;48.142;11.616;2023-07-20T00:57:33;21.90;79.40
4904;DHT22;2467;48.142;11.616;2023-07-20T00:58:26;21.90;79.60
4904;DHT22;2467;48.142;11.616;2023-07-20T00:59:18;21.90;79.50
4904;DHT22;2467;48.142;11.616;2023-07-20T01:00:12;21.90;79.30
4904;DHT22;2467;48.142;11.616;2023-07-20T01:01:04;21.90;79.40
4904;DHT22;2467;48.142;11.616;2023-07-20T01:02:00;21.90;79.60
4904;DHT22;2467;48.142;11.616;2023-07-20T01:02:54;21.90;79.90
4904;DHT22;2467;48.142;11.616;2023-07-20T01:03:46;21.90;79.80
4904;DHT22;2467;48.142;11.616;2023-07-20T01:04:40;21.90;79.90
4904;DHT22;2467;48.142;11.616;2023-07-20T01:05:38;21.90;79.60
4904;DHT22;2467;48.142;11.616;2023-07-20T01:06:39;21.90;79.70
4904;DHT22;2467;48.142;11.616;2023-07-20T01:07:36;21.90;79.70
4904;DHT22;2467;48.142;11.616;2023-07-20T01:08:35;21.90;79.60
4904;DHT22;2467;48.142;11.616;2023-07-20T01:09:33;21.90;79.90
4904;DHT22;2467;48.142;11.616;2023-07-20T01:10:33;21.90;80.30
4904;DHT22;2467;48.142;11.616;2023-07-20T01:11:32;21.90;80.10
4904;DHT22;2467;48.142;11.616;2023-07-20T01:12:30;21.90;80.10
4904;DHT22;2467;48.142;11.616;2023-07-20T01:13:26;21.90;80.20
4904;DHT22;2467;48.142;11.616;2023-07-20T01:14:18;21.90;80.10
4904;DHT22;2467;48.142;11.616;2023-07-20T01:15:13;21.90;80.30
4904;DHT22;2467;48.142;11.616;2023-07-20T01:16:05;21.90;80.50
4904;DHT22;2467;48.142;11.616;2023-07-20T01:16:57;21.90;80.50
4904;DHT22;2467;48.142;11.616;2023-07-20T01:17:50;21.90;80.60
4904;DHT22;2467;48.142;11.616;2023-07-20T01:18:44;21.80;80.90
4904;DHT22;2467;48.142;11.616;2023-07-20T01:19:37;21.80;81.00
4904;DHT22;2467;48.142;11.616;2023-07-20T01:20:32;21.80;81.10
4904;DHT22;2467;48.142;11.616;2023-07-20T01:21:31;21.80;81.20
4904;DHT22;2467;48.142;11.616;2023-07-20T01:22:43;21.90;81.30
4904;DHT22;2467;48.142;11.616;2023-07-20T01:24:04;21.80;81.00
4904;DHT22;2467;48.142;11.616;2023-07-20T01:25:18;21.90;81.10
4904;DHT22;2467;48.142;11.616;2023-07-20T01:26:27;21.90;81.20
4904;DHT22;2467;48.142;11.616;2023-07-20T01:27:43;21.90;81.30
4904;DHT22;2467;48.142;11.616;2023-07-20T01:28:55;21.90;81.40
4904;DHT22;2467;48.142;11.616;2023-07-20T01:30:22;21.90;81.70
4904;DHT22;2467;48.142;11.616;2023-07-20T01:31:21;21.90;81.50
4904;DHT22;2467;48.142;11.616;2023-07-20T01:32:17;22.00;81.70
4904;DHT22;2467;48.142;11.616;2023-07-20T01:33:09;22.00;81.70
4904;DHT22;2467;48.142;11.616;2023-07-20T01:34:03;22.00;81.10
4904;DHT22;2467;48.142;11.616;2023-07-20T01:34:58;22.00;81.00
4904;DHT22;2467;48.142;11.616;2023-07-20T01:35:54;22.00;81.00
4904;DHT22;2467;48.142;11.616;2023-07-20T01:36:48;22.00;81.20
4904;DHT22;2467;48.142;11.616;2023-07-20T01:37:44;22.00;81.30
4904;DHT22;2467;48.142;11.616;2023-07-20T01:38:38;22.00;81.10
4904;DHT22;2467;48.142;11.616;2023-07-20T01:39:32;22.00;80.60
4904;DHT22;2467;48.142;11.616;2023-07-20T01:40:25;21.90;80.40
4904;DHT22;2467;48.142;11.616;2023-07-20T01:41:18;22.00;80.40
4904;DHT22;2467;48.142;11.616;2023-07-20T01:42:11;22.00;80.60
4904;DHT22;2467;48.142;11.616;2023-07-20T01:43:04;21.90;80.60
4904;DHT22;2467;48.142;11.616;2023-07-20T01:43:57;21.90;80.80
4904;DHT22;2467;48.142;11.616;2023-07-20T01:44:51;21.90;80.70
4904;DHT22;2467;48.142;11.616;2023-07-20T01:45:44;21.90;80.50
4904;DHT22;2467;48.142;11.616;2023-07-20T01:46:39;21.90;80.70
4904;DHT22;2467;48.142;11.616;2023-07-20T01:47:31;21.90;81.00
4904;DHT22;2467;48.142;11.616;2023-07-20T01:48:24;21.80;81.30
4904;DHT22;2467;48.142;11.616;2023-07-20T01:49:16;21.90;80.30
4904;DHT22;2467;48.142;11.616;2023-07-20T01:50:10;21.90;79.40
4904;DHT22;2467;48.142;11.616;2023-07-20T01:51:02;21.90;78.50
4904;DHT22;2467;48.142;11.616;2023-07-20T01:51:55;21.90;78.60
4904;DHT22;2467;48.142;11.616;2023-07-20T01:52:47;21.80;79.00
4904;DHT22;2467;48.142;11.616;2023-07-20T01:53:41;21.80;79.20
4904;DHT22;2467;48.142;11.616;2023-07-20T01:54:33;21.80;79.50
4904;DHT22;2467;48.142;11.616;2023-07-20T01:55:26;21.80;79.40
4904;DHT22;2467;48.142;11.616;2023-07-20T01:56:18;21.80;79.20
4904;DHT22;2467;48.142;11.616;2023-07-20T01:57:12;21.80;77.30
4904;DHT22;2467;48.142;11.616;2023-07-20T01:58:04;21.70;73.20
4904;DHT22;2467;48.142;11.616;2023-07-20T01:58:58;21.70;72.80
4904;DHT22;2467;48.142;11.616;2023-07-20T01:59:51;21.70;74.30
4904;DHT22;2467;48.142;11.616;2023-07-20T02:00:43;21.70;72.70
4904;DHT22;2467;48.142;11.616;2023-07-20T02:01:36;21.70;72.70
4904;DHT22;2467;48.142;11.616;2023-07-20T02:02:30;21.70;72.50
4904;DHT22;2467;48.142;11.616;2023-07-20T02:03:23;21.70;72.70
4904;DHT22;2467;48.142;11.616;2023-07-20T02:04:17;21.70;73.00
4904;DHT22;2467;48.142;11.616;2023-07-20T02:05:10;21.70;73.30
4904;DHT22;2467;48.142;11.616;2023-07-20T02:06:03;21.80;73.80
4904;DHT22;2467;48.142;11.616;2023-07-20T02:06:55;21.80;73.90
4904;DHT22;2467;48.142;11.616;2023-07-20T02:07:48;21.80;74.10
4904;DHT22;2467;48.142;11.616;2023-07-20T02:08:40;21.80;74.30
4904;DHT22;2467;48.142;11.616;2023-07-20T02:09:33;21.80;74.00
4904;DHT22;2467;48.142;11.616;2023-07-20T02:10:26;21.80;74.00
4904;DHT22;2467;48.142;11.616;2023-07-20T02:11:18;21.80;74.20
4904;DHT22;2467;48.142;11.616;2023-07-20T02:12:11;21.80;74.30
4904;DHT22;2467;48.142;11.616;2023-07-20T02:13:03;21.80;74.20
4904;DHT22;2467;48.142;11.616;2023-07-20T02:13:56;21.80;73.90
4904;DHT22;2467;48.142;11.616;2023-07-20T02:14:49;21.80;74.00
4904;DHT22;2467;48.142;11.616;2023-07-20T02:15:43;21.80;73.60
4904;DHT22;2467;48.142;11.616;2023-07-20T02:16:35;21.80;73.90
4904;DHT22;2467;48.142;11.616;2023-07-20T02:17:29;21.80;74.50
4904;DHT22;2467;48.142;11.616;2023-07-20T02:18:22;21.80;75.40
4904;DHT22;2467;48.142;11.616;2023-07-20T02:19:15;21.80;75.70
4904;DHT22;2467;48.142;11.616;2023-07-20T02:20:07;21.80;76.70
4904;DHT22;2467;48.142;11.616;2023-07-20T02:21:01;21.80;77.80
4904;DHT22;2467;48.142;11.616;2023-07-20T02:21:54;21.70;78.60
4904;DHT22;2467;48.142;11.616;2023-07-20T02:22:46;21.70;79.40
4904;DHT22;2467;48.142;11.616;2023-07-20T02:23:38;21.70;80.10
4904;DHT22;2467;48.142;11.616;2023-07-20T02:24:32;21.70;80.70
4904;DHT22;2467;48.142;11.616;2023-07-20T02:25:25;21.60;81.10
4904;DHT22;2467;48.142;11.616;2023-07-20T02:26:18;21.60;81.90
4904;DHT22;2467;48.142;11.616;2023-07-20T02:27:10;21.60;82.10
4904;DHT22;2467;48.142;11.616;2023-07-20T02:28:04;21.60;82.30
4904;DHT22;2467;48.142;11.616;2023-07-20T02:28:56;21.50;82.40
4904;DHT22;2467;48.142;11.616;2023-07-20T02:29:49;21.60;82.80
4904;DHT22;2467;48.142;11.616;2023-07-20T02:30:42;21.60;83.10
4904;DHT22;2467;48.142;11.616;2023-07-20T02:31:35;21.50;83.10
4904;DHT22;2467;48.142;11.616;2023-07-20T02:32:31;21.60;82.80
4904;DHT22;2467;48.142;11.616;2023-07-20T02:33:24;21.60;82.30
4904;DHT22;2467;48.142;11.616;2023-07-20T02:34:17;21.60;82.50
4904;DHT22;2467;48.142;11.616;2023-07-20T02:35:10;21.50;82.50
4904;DHT22;2467;48.142;11.616;2023-07-20T02:36:02;21.50;82.60
4904;DHT22;2467;48.142;11.616;2023-07-20T02:36:55;21.50;82.90
4904;DHT22;2467;48.142;11.616;2023-07-20T02:37:48;21.50;83.30
4904;DHT22;2467;48.142;11.616;2023-07-20T02:38:41;21.40;83.50
4904;DHT22;2467;48.142;11.616;2023-07-20T02:39:34;21.40;83.50
4904;DHT22;2467;48.142;11.616;2023-07-20T02:40:26;21.40;83.80
4904;DHT22;2467;48.142;11.616;2023-07-20T02:41:19;21.40;83.70
4904;DHT22;2467;48.142;11.616;2023-07-20T02:42:12;21.40;83.50
4904;DHT22;2467;48.142;11.616;2023-07-20T02:43:05;21.40;83.70
4904;DHT22;2467;48.142;11.616;2023-07-20T02:43:58;21.40;83.90
4904;DHT22;2467;48.142;11.616;2023-07-20T02:44:50;21.40;83.80
4904;DHT22;2467;48.142;11.616;2023-07-20T02:45:43;21.40;84.00
4904;DHT22;2467;48.142;11.616;2023-07-20T02:46:36;21.30;84.10
4904;DHT22;2467;48.142;11.616;2023-07-20T02:47:30;21.30;84.00
4904;DHT22;2467;48.142;11.616;2023-07-20T02:48:23;21.40;83.80
4904;DHT22;2467;48.142;11.616;2023-07-20T02:49:16;21.30;83.70
4904;DHT22;2467;48.142;11.616;2023-07-20T02:50:09;21.30;83.70
4904;DHT22;2467;48.142;11.616;2023-07-20T02:51:01;21.30;83.40
4904;DHT22;2467;48.142;11.616;2023-07-20T02:51:55;21.30;83.00
4904;DHT22;2467;48.142;11.616;2023-07-20T02:52:47;21.30;83.00
4904;DHT22;2467;48.142;11.616;2023-07-20T02:53:39;21.30;82.90
4904;DHT22;2467;48.142;11.616;2023-07-20T02:54:33;21.20;82.70
4904;DHT22;2467;48.142;11.616;2023-07-20T02:55:25;21.20;82.80
4904;DHT22;2467;48.142;11.616;2023-07-20T02:56:18;21.20;82.80
4904;DHT22;2467;48.142;11.616;2023-07-20T02:57:11;21.30;83.00
4904;DHT22;2467;48.142;11.616;2023-07-20T02:58:03;21.20;83.10
4904;DHT22;2467;48.142;11.616;2023-07-20T02:58:56;21.30;82.70
4904;DHT22;2467;48.142;11.616;2023-07-20T02:59:49;21.20;82.30
4904;DHT22;2467;48.142;11.616;2023-07-20T03:00:42;21.20;82.30
4904;DHT22;2467;48.142;11.616;2023-07-20T03:01:36;21.20;82.30
4904;DHT22;2467;48.142;11.616;2023-07-20T03:02:31;21.10;82.70
4904;DHT22;2467;48.142;11.616;2023-07-20T03:03:24;21.00;83.10
4904;DHT22;2467;48.142;11.616;2023-07-20T03:04:17;21.00;84.70
4904;DHT22;2467;48.142;11.616;2023-07-20T03:05:10;21.00;88.70
4904;DHT22;2467;48.142;11.616;2023-07-20T03:06:02;20.90;90.90
4904;DHT22;2467;48.142;11.616;2023-07-20T03:06:54;20.90;93.70
4904;DHT22;2467;48.142;11.616;2023-07-20T03:07:49;20.80;95.20
4904;DHT22;2467;48.142;11.616;2023-07-20T03:08:42;20.70;95.70
4904;DHT22;2467;48.142;11.616;2023-07-20T03:09:39;20.60;97.20
4904;DHT22;2467;48.142;11.616;2023-07-20T03:10:32;20.50;97.90
4904;DHT22;2467;48.142;11.616;2023-07-20T03:11:25;20.40;98.50
4904;DHT22;2467;48.142;11.616;2023-07-20T03:12:18;20.30;98.90
4904;DHT22;2467;48.142;11.616;2023-07-20T03:13:10;20.20;99.90
4904;DHT22;2467;48.142;11.616;2023-07-20T03:14:04;20.10;99.90
4904;DHT22;2467;48.142;11.616;2023-07-20T03:14:56;20.10;99.90
4904;DHT22;2467;48.142;11.616;2023-07-20T03:15:49;20.00;99.90
4904;DHT22;2467;48.142;11.616;2023-07-20T03:16:42;20.00;99.90
4904;DHT22;2467;48.142;11.616;2023-07-20T03:17:36;20.00;99.90
4904;DHT22;2467;48.142;11.616;2023-07-20T03:18:29;19.90;99.90
4904;DHT22;2467;48.142;11.616;2023-07-20T03:19:21;19.90;99.90
4904;DHT22;2467;48.142;11.616;2023-07-20T03:20:13;19.80;99.90
4904;DHT22;2467;48.142;11.616;2023-07-20T03:21:08;19.80;99.90
4904;DHT22;2467;48.142;11.616;2023-07-20T03:22:00;19.80;99.90
4904;DHT22;2467;48.142;11.616;2023-07-20T03:22:52;19.70;99.90
4904;DHT22;2467;48.142;11.616;2023-07-20T03:23:46;19.70;99.90
4904;DHT22;2467;48.142;11.616;2023-07-20T03:24:38;19.70;99.90
4904;DHT22;2467;48.142;11.616;2023-07-20T03:25:30;19.70;99.90
4904;DHT22;2467;48.142;11.616;2023-07-20T03:26:23;19.70;99.90
4904;DHT22;2467;48.142;11.616;2023-07-20T03:27:16;19.70;99.90
4904;DHT22;2467;48.142;11.616;2023-07-20T03:28:08;19.70;99.90
4904;DHT22;2467;48.142;11.616;2023-07-20T03:29:01;19.60;99.90
4904;DHT22;2467;48.142;11.616;2023-07-20T03:29:54;19.60;99.90
4904;DHT22;2467;48.142;11.616;2023-07-20T03:30:52;19.60;99.90
4904;DHT22;2467;48.142;11.616;2023-07-20T03:31:45;19.60;99.90
4904;DHT22;2467;48.142;11.616;2023-07-20T03:32:39;19.60;99.90
4904;DHT22;2467;48.142;11.616;2023-07-20T03:33:32;19.60;99.90
4904;DHT22;2467;48.142;11.616;2023-07-20T03:34:25;19.50;99.90
4904;DHT22;2467;48.142;11.616;2023-07-20T03:35:17;19.50;99.90
4904;DHT22;2467;48.142;11.616;2023-07-20T03:36:10;19.50;99.90
4904;DHT22;2467;48.142;11.616;2023-07-20T03:37:03;19.50;99.90
4904;DHT22;2467;48.142;11.616;2023-07-20T03:37:57;19.50;99.90
4904;DHT22;2467;48.142;11.616;2023-07-20T03:38:49;19.50;99.90
4904;DHT22;2467;48.142;11.616;2023-07-20T03:39:42;19.40;99.90
4904;DHT22;2467;48.142;11.616;2023-07-20T03:40:35;19.40;99.90
4904;DHT22;2467;48.142;11.616;2023-07-20T03:41:27;19.30;99.90
4904;DHT22;2467;48.142;11.616;2023-07-20T03:42:20;19.20;99.90
4904;DHT22;2467;48.142;11.616;2023-07-20T03:43:12;19.20;99.90
4904;DHT22;2467;48.142;11.616;2023-07-20T03:44:05;19.10;99.90
4904;DHT22;2467;48.142;11.616;2023-07-20T03:44:58;19.10;99.90
4904;DHT22;2467;48.142;11.616;2023-07-20T03:45:50;19.10;99.90
4904;DHT22;2467;48.142;11.616;2023-07-20T03:46:43;19.10;99.90
4904;DHT22;2467;48.142;11.616;2023-07-20T03:47:37;19.00;99.90
4904;DHT22;2467;48.142;11.616;2023-07-20T03:48:30;19.00;99.90
4904;DHT22;2467;48.142;11.616;2023-07-20T03:49:23;18.90;99.90
4904;DHT22;2467;48.142;11.616;2023-07-20T03:50:16;18.90;99.90
4904;DHT22;2467;48.142;11.616;2023-07-20T03:51:08;18.90;99.90
4904;DHT22;2467;48.142;11.616;2023-07-20T03:52:02;19.00;99.90
4904;DHT22;2467;48.142;11.616;2023-07-20T03:52:55;18.90;99.90
4904;DHT22;2467;48.142;11.616;2023-07-20T03:53:47;18.90;99.90
4904;DHT22;2467;48.142;11.616;2023-07-20T03:54:40;18.90;99.90
4904;DHT22;2467;48.142;11.616;2023-07-20T03:55:32;18.90;99.90
4904;DHT22;2467;48.142;11.616;2023-07-20T03:56:25;18.90;99.90
4904;DHT22;2467;48.142;11.616;2023-07-20T03:57:18;19.00;99.90
4904;DHT22;2467;48.142;11.616;2023-07-20T03:58:10;19.00;99.90
4904;DHT22;2467;48.142;11.616;2023-07-20T03:59:03;19.00;99.90
4904;DHT22;2467;48.142;11.616;2023-07-20T03:59:56;19.00;99.90
4904;DHT22;2467;48.142;11.616;2023-07-20T04:00:50;19.00;99.90
4904;DHT22;2467;48.142;11.616;2023-07-20T04:01:43;19.00;99.90
4904;DHT22;2467;48.142;11.616;2023-07-20T04:02:36;19.00;99.90
4904;DHT22;2467;48.142;11.616;2023-07-20T04:03:30;19.00;99.90
4904;DHT22;2467;48.142;11.616;2023-07-20T04:04:22;19.10;99.90
4904;DHT22;2467;48.142;11.616;2023-07-20T04:05:16;19.10;99.90
4904;DHT22;2467;48.142;11.616;2023-07-20T04:06:08;19.00;99.90
4904;DHT22;2467;48.142;11.616;2023-07-20T04:07:00;19.10;99.90
4904;DHT22;2467;48.142;11.616;2023-07-20T04:07:53;19.10;99.90
4904;DHT22;2467;48.142;11.616;2023-07-20T04:08:46;19.10;99.90
4904;DHT22;2467;48.142;11.616;2023-07-20T04:09:39;19.10;99.90
4904;DHT22;2467;48.142;11.616;2023-07-20T04:10:32;19.10;99.90
4904;DHT22;2467;48.142;11.616;2023-07-20T04:11:24;19.10;99.90
4904;DHT22;2467;48.142;11.616;2023-07-20T04:12:18;19.10;99.90
4904;DHT22;2467;48.142;11.616;2023-07-20T04:13:10;19.10;99.90
4904;DHT22;2467;48.142;11.616;2023-07-20T04:14:03;19.10;99.90
4904;DHT22;2467;48.142;11.616;2023-07-20T04:14:56;19.10;99.90
4904;DHT22;2467;48.142;11.616;2023-07-20T04:15:48;19.10;99.90
4904;DHT22;2467;48.142;11.616;2023-07-20T04:16:40;19.10;99.90
4904;DHT22;2467;48.142;11.616;2023-07-20T04:17:33;19.10;99.90
4904;DHT22;2467;48.142;11.616;2023-07-20T04:18:26;19.20;99.90
4904;DHT22;2467;48.142;11.616;2023-07-20T04:19:20;19.10;99.90
4904;DHT22;2467;48.142;11.616;2023-07-20T04:20:13;19.10;99.90
4904;DHT22;2467;48.142;11.616;2023-07-20T04:21:07;19.20;99.90
4904;DHT22;2467;48.142;11.616;2023-07-20T04:22:00;19.10;99.90
4904;DHT22;2467;48.142;11.616;2023-07-20T04:22:52;19.10;99.90
4904;DHT22;2467;48.142;11.616;2023-07-20T04:23:46;19.10;99.90
4904;DHT22;2467;48.142;11.616;2023-07-20T04:24:38;19.10;99.90
4904;DHT22;2467;48.142;11.616;2023-07-20T04:25:31;19.10;99.90
4904;DHT22;2467;48.142;11.616;2023-07-20T04:26:30;19.20;99.90
4904;DHT22;2467;48.142;11.616;2023-07-20T04:27:23;19.20;99.90
4904;DHT22;2467;48.142;11.616;2023-07-20T04:28:16;19.20;99.90
4904;DHT22;2467;48.142;11.616;2023-07-20T04:29:08;19.20;99.90
4904;DHT22;2467;48.142;11.616;2023-07-20T04:30:02;19.20;99.90
4904;DHT22;2467;48.142;11.616;2023-07-20T04:30:54;19.20;99.90
4904;DHT22;2467;48.142;11.616;2023-07-20T04:31:46;19.20;99.90
4904;DHT22;2467;48.142;11.616;2023-07-20T04:32:40;19.30;99.90
4904;DHT22;2467;48.142;11.616;2023-07-20T04:33:38;19.30;99.90
4904;DHT22;2467;48.142;11.616;2023-07-20T04:34:32;19.30;99.90
4904;DHT22;2467;48.142;11.616;2023-07-20T04:35:46;19.40;99.90
4904;DHT22;2467;48.142;11.616;2023-07-20T04:36:38;19.40;99.90
4904;DHT22;2467;48.142;11.616;2023-07-20T04:37:31;19.40;99.90
4904;DHT22;2467;48.142;11.616;2023-07-20T04:38:24;19.30;99.90
4904;DHT22;2467;48.142;11.616;2023-07-20T04:39:16;19.40;99.90
4904;DHT22;2467;48.142;11.616;2023-07-20T04:40:22;19.40;99.90
4904;DHT22;2467;48.142;11.616;2023-07-20T04:41:14;19.40;99.90
4904;DHT22;2467;48.142;11.616;2023-07-20T04:42:08;19.40;99.90
4904;DHT22;2467;48.142;11.616;2023-07-20T04:43:00;19.40;99.90
4904;DHT22;2467;48.142;11.616;2023-07-20T04:43:52;19.40;99.90
4904;DHT22;2467;48.142;11.616;2023-07-20T04:44:45;19.40;99.90
4904;DHT22;2467;48.142;11.616;2023-07-20T04:45:37;19.40;99.90
4904;DHT22;2467;48.142;11.616;2023-07-20T04:46:30;19.40;99.90
4904;DHT22;2467;48.142;11.616;2023-07-20T04:47:23;19.40;99.90
4904;DHT22;2467;48.142;11.616;2023-07-20T04:48:16;19.40;99.90
4904;DHT22;2467;48.142;11.616;2023-07-20T04:49:10;19.40;99.90
4904;DHT22;2467;48.142;11.616;2023-07-20T04:50:06;19.40;99.90
4904;DHT22;2467;48.142;11.616;2023-07-20T04:51:00;19.40;99.90
4904;DHT22;2467;48.142;11.616;2023-07-20T04:51:52;19.40;99.90
4904;DHT22;2467;48.142;11.616;2023-07-20T04:52:45;19.50;99.90
4904;DHT22;2467;48.142;11.616;2023-07-20T04:53:38;19.50;99.90
4904;DHT22;2467;48.142;11.616;2023-07-20T04:54:30;19.50;99.90
4904;DHT22;2467;48.142;11.616;2023-07-20T04:55:23;19.50;99.90
4904;DHT22;2467;48.142;11.616;2023-07-20T04:56:15;19.50;99.90
4904;DHT22;2467;48.142;11.616;2023-07-20T04:57:10;19.50;99.90
4904;DHT22;2467;48.142;11.616;2023-07-20T04:58:03;19.60;99.90
4904;DHT22;2467;48.142;11.616;2023-07-20T04:58:57;19.60;99.90
4904;DHT22;2467;48.142;11.616;2023-07-20T04:59:49;19.60;99.90
4904;DHT22;2467;48.142;11.616;2023-07-20T05:00:42;19.60;99.90
4904;DHT22;2467;48.142;11.616;2023-07-20T05:01:34;19.60;99.90
4904;DHT22;2467;48.142;11.616;2023-07-20T05:02:27;19.60;99.90
4904;DHT22;2467;48.142;11.616;2023-07-20T05:03:20;19.60;99.90
4904;DHT22;2467;48.142;11.616;2023-07-20T05:04:13;19.60;99.90
4904;DHT22;2467;48.142;11.616;2023-07-20T05:05:11;19.60;99.90
4904;DHT22;2467;48.142;11.616;2023-07-20T05:06:03;19.60;99.90
4904;DHT22;2467;48.142;11.616;2023-07-20T05:06:56;19.60;99.90
4904;DHT22;2467;48.142;11.616;2023-07-20T05:07:48;19.60;99.90
4904;DHT22;2467;48.142;11.616;2023-07-20T05:08:41;19.60;99.90
4904;DHT22;2467;48.142;11.616;2023-07-20T05:09:34;19.70;99.90
4904;DHT22;2467;48.142;11.616;2023-07-20T05:10:26;19.60;99.90
4904;DHT22;2467;48.142;11.616;2023-07-20T05:11:19;19.60;99.90
4904;DHT22;2467;48.142;11.616;2023-07-20T05:12:12;19.60;99.90
4904;DHT22;2467;48.142;11.616;2023-07-20T05:13:04;19.60;99.90
4904;DHT22;2467;48.142;11.616;2023-07-20T05:13:57;19.60;99.90
4904;DHT22;2467;48.142;11.616;2023-07-20T05:14:49;19.50;99.90
4904;DHT22;2467;48.142;11.616;2023-07-20T05:15:42;19.50;99.90
4904;DHT22;2467;48.142;11.616;2023-07-20T05:16:35;19.60;99.90
4904;DHT22;2467;48.142;11.616;2023-07-20T05:17:28;19.50;99.90
4904;DHT22;2467;48.142;11.616;2023-07-20T05:18:20;19.60;99.90
4904;DHT22;2467;48.142;11.616;2023-07-20T05:19:13;19.50;99.90
4904;DHT22;2467;48.142;11.616;2023-07-20T05:20:07;19.60;99.90
4904;DHT22;2467;48.142;11.616;2023-07-20T05:21:03;19.50;99.90
4904;DHT22;2467;48.142;11.616;2023-07-20T05:21:56;19.60;99.90
4904;DHT22;2467;48.142;11.616;2023-07-20T05:22:48;19.60;99.90
4904;DHT22;2467;48.142;11.616;2023-07-20T05:23:42;19.60;99.90
4904;DHT22;2467;48.142;11.616;2023-07-20T05:24:34;19.60;99.00
4904;DHT22;2467;48.142;11.616;2023-07-20T05:25:26;19.70;98.30
4904;DHT22;2467;48.142;11.616;2023-07-20T05:26:22;19.60;98.10
4904;DHT22;2467;48.142;11.616;2023-07-20T05:27:15;19.60;97.40
4904;DHT22;2467;48.142;11.616;2023-07-20T05:28:07;19.60;96.80
4904;DHT22;2467;48.142;11.616;2023-07-20T05:29:00;19.60;96.90
4904;DHT22;2467;48.142;11.616;2023-07-20T05:29:53;19.60;95.60
4904;DHT22;2467;48.142;11.616;2023-07-20T05:30:46;19.50;94.40
4904;DHT22;2467;48.142;11.616;2023-07-20T05:31:38;19.50;94.00
4904;DHT22;2467;48.142;11.616;2023-07-20T05:32:31;19.60;93.80
4904;DHT22;2467;48.142;11.616;2023-07-20T05:33:24;19.50;93.00
4904;DHT22;2467;48.142;11.616;2023-07-20T05:34:16;19.50;91.80
4904;DHT22;2467;48.142;11.616;2023-07-20T05:35:09;19.50;92.00
4904;DHT22;2467;48.142;11.616;2023-07-20T05:37:19;19.60;92.00
4904;DHT22;2467;48.142;11.616;2023-07-20T05:38:12;19.60;91.50
4904;DHT22;2467;48.142;11.616;2023-07-20T05:39:04;19.60;91.50
4904;DHT22;2467;48.142;11.616;2023-07-20T05:39:57;19.60;91.00
4904;DHT22;2467;48.142;11.616;2023-07-20T05:40:49;19.60;91.50
4904;DHT22;2467;48.142;11.616;2023-07-20T05:41:43;19.70;91.10
4904;DHT22;2467;48.142;11.616;2023-07-20T05:42:35;19.70;91.10
4904;DHT22;2467;48.142;11.616;2023-07-20T05:43:28;19.70;91.00
4904;DHT22;2467;48.142;11.616;2023-07-20T05:44:20;19.80;91.00
4904;DHT22;2467;48.142;11.616;2023-07-20T05:45:14;19.80;90.50
4904;DHT22;2467;48.142;11.616;2023-07-20T05:46:06;19.70;90.00